Time;durP1;ratioP1;P1;durP2;ratioP2;P2;SDS_P1;SDS_P2;PMS_P1;PMS_P2;Temp;Humidity;BMP_temperature;BMP_pressure;BME280_temperature;BME280_humidity;BME280_pressure;Samples;Min_cycle;Max_cycle;Signal;HPM_P1;HPM_P2
2021/04/16 00:01:01;;;;;;;9.80;8.78;;;;;;;9.51;89.23;99179.36;1771280;79;22010;-62
2021/04/16 00:03:29;;;;;;;10.08;9.10;;;;;;;9.48;89.14;99183.38;1761794;81;21124;-61
2021/04/16 00:05:58;;;;;;;12.85;10.32;;;;;;;9.46;89.21;99180.66;1760156;79;21236;-64
2021/04/16 00:08:30;;;;;;;12.03;9.40;;;;;;;9.43;89.33;99179.30;1753114;79;21100;-62
2021/04/16 00:11:09;;;;;;;;;;;;;;;9.41;89.51;99179.27;1733960;82;21131;-62
2021/04/16 00:13:36;;;;;;;12.30;9.15;;;;;;;9.42;89.79;99180.89;1721651;82;20160;-59
2021/04/16 00:16:07;;;;;;;10.38;8.85;;;;;;;9.40;89.86;99174.42;1737592;82;21117;-61
2021/04/16 00:18:36;;;;;;;13.00;9.47;;;;;;;9.44;90.03;99174.22;1738460;82;21148;-60
2021/04/16 00:21:04;;;;;;;10.93;9.40;;;;;;;9.44;89.89;99180.11;1735480;82;21346;-61
2021/04/16 00:23:33;;;;;;;9.10;8.18;;;;;;;9.42;89.91;99178.20;1720520;82;21217;-60
2021/04/16 00:26:02;;;;;;;9.18;8.28;;;;;;;9.40;89.99;99183.03;1720149;83;21119;-61
2021/04/16 00:28:32;;;;;;;10.53;9.43;;;;;;;9.37;90.05;99185.67;1720343;83;21191;-60
2021/04/16 00:31:04;;;;;;;9.83;8.70;;;;;;;9.36;90.30;99179.22;1749263;82;21478;-61
2021/04/16 00:33:31;;;;;;;11.33;8.88;;;;;;;9.37;90.49;99180.84;1750371;82;21133;-61
2021/04/16 00:36:00;;;;;;;9.10;8.20;;;;;;;9.39;90.52;99185.44;1750263;82;21328;-61
2021/04/16 00:38:29;;;;;;;8.85;7.95;;;;;;;9.39;90.57;99181.41;1749346;82;21140;-60
2021/04/16 00:40:59;;;;;;;11.85;8.70;;;;;;;9.37;90.59;99183.00;1721357;82;21072;-58
2021/04/16 00:43:31;;;;;;;10.28;8.98;;;;;;;9.37;90.78;99187.02;1720382;83;21004;-60
2021/04/16 00:46:16;;;;;;;10.88;9.78;;;;;;;9.39;90.94;99182.75;1720620;83;20997;-61
2021/04/16 00:48:56;;;;;;;12.35;10.68;;;;;;;9.42;91.09;99183.05;1746343;81;23542;-62
2021/04/16 00:51:33;;;;;;;12.45;9.63;;;;;;;9.47;91.14;99183.09;1720612;82;21064;-62
2021/04/16 00:54:00;;;;;;;11.88;10.23;;;;;;;9.55;91.15;99186.64;1720429;83;21155;-63
2021/04/16 00:56:30;;;;;;;10.53;9.05;;;;;;;9.62;91.02;99181.89;1695979;83;21238;-61
2021/04/16 00:58:58;;;;;;;11.12;9.20;;;;;;;9.66;90.75;99185.39;1727839;82;21171;-62
2021/04/16 01:01:27;;;;;;;9.58;8.68;;;;;;;9.63;90.59;99186.73;1720527;82;21059;-59
2021/04/16 01:03:55;;;;;;;10.55;9.48;;;;;;;9.61;90.58;99184.28;1720359;83;21833;-64
2021/04/16 01:06:23;;;;;;;10.53;9.43;;;;;;;9.64;90.74;99187.80;1720342;83;21127;-61
2021/04/16 01:08:51;;;;;;;9.85;8.90;;;;;;;9.68;90.70;99185.42;1743348;82;21517;-62
2021/04/16 01:11:18;;;;;;;9.65;8.73;;;;;;;9.69;90.57;99187.59;1750110;82;21180;-62
2021/04/16 01:13:46;;;;;;;11.57;10.35;;;;;;;9.70;90.49;99186.49;1735142;82;21446;-62
2021/04/16 01:16:17;;;;;;;11.65;9.68;;;;;;;9.70;90.45;99184.63;1750170;82;21128;-61
2021/04/16 01:18:49;;;;;;;11.85;9.13;;;;;;;9.68;90.32;99181.93;1724797;82;21120;-61
2021/04/16 01:21:22;;;;;;;13.60;9.95;;;;;;;9.64;90.32;99182.42;1720318;83;21175;-61
2021/04/16 01:24:12;;;;;;;11.03;9.93;;;;;;;9.64;90.45;99186.45;1720447;83;21159;-60
2021/04/16 01:26:40;;;;;;;8.95;8.15;;;;;;;9.65;90.54;99180.55;1720456;83;21393;-59
2021/04/16 01:29:08;;;;;;;9.60;8.60;;;;;;;9.67;90.57;99186.48;1721097;82;21159;-61
2021/04/16 01:31:47;;;;;;;11.05;9.95;;;;;;;9.63;90.37;99184.04;1720364;83;21155;-60
2021/04/16 01:34:10;;;;;;;10.80;9.70;;;;;;;9.61;90.45;99183.48;1720313;83;21139;-61
2021/04/16 01:36:39;;;;;;;10.45;8.78;;;;;;;9.60;90.50;99180.50;1720452;82;21124;-59
2021/04/16 01:39:08;;;;;;;11.97;9.18;;;;;;;9.57;90.50;99181.03;1729499;82;20998;-60
2021/04/16 01:41:36;;;;;;;11.00;8.50;;;;;;;9.54;90.54;99179.65;1736305;82;21195;-59
2021/04/16 01:44:10;;;;;;;11.73;9.18;;;;;;;9.52;90.65;99179.11;1720366;83;21159;-60
2021/04/16 01:47:04;;;;;;;10.68;9.58;;;;;;;9.53;90.74;99182.61;1720459;83;21108;-61
2021/04/16 01:49:39;;;;;;;12.30;8.93;;;;;;;9.54;90.88;99176.97;1731044;82;21601;-62
2021/04/16 01:52:14;;;;;;;10.32;8.78;;;;;;;9.55;90.73;99178.59;1749588;82;21210;-60
2021/04/16 01:54:46;;;;;;;10.38;9.38;;;;;;;9.52;90.64;99175.09;1727143;82;22337;-61
2021/04/16 01:57:26;;;;;;;8.50;7.80;;;;;;;9.45;90.75;99170.45;1718742;82;21586;-60
2021/04/16 02:00:01;;;;;;;9.38;8.48;;;;;;;9.48;91.14;99171.30;1846146;76;28160;-60
2021/04/16 02:02:34;;;;;;;9.50;8.55;;;;;;;9.41;91.26;99163.97;1815488;79;20996;-59
2021/04/16 02:05:02;;;;;;;10.40;9.40;;;;;;;9.44;91.38;99172.06;1814551;79;21994;-60
2021/04/16 02:10:16;;;;;;;11.97;8.38;;;;;;;9.46;91.40;99163.20;1767371;79;21110;-64
2021/04/16 02:12:43;;;;;;;10.28;9.30;;;;;;;9.44;91.37;99167.51;1769799;81;21102;-63
2021/04/16 02:15:13;;;;;;;8.80;7.90;;;;;;;9.40;91.46;99163.69;1770928;79;21629;-63
2021/04/16 02:17:41;;;;;;;9.25;8.35;;;;;;;9.38;91.67;99171.20;1758479;80;21362;-60
2021/04/16 02:20:16;;;;;;;11.15;8.88;;;;;;;9.39;91.81;99169.33;1767359;80;21597;-58
2021/04/16 02:22:45;;;;;;;10.68;8.88;;;;;;;9.38;91.85;99171.20;1769092;81;21096;-62
2021/04/16 02:25:15;;;;;;;10.82;8.83;;;;;;;9.37;91.90;99168.77;1774681;80;21943;-58
2021/04/16 02:27:43;;;;;;;9.93;8.93;;;;;;;9.38;91.98;99167.70;1772680;80;21199;-61
2021/04/16 02:30:16;;;;;;;9.90;8.55;;;;;;;9.34;91.75;99174.12;1723201;82;22386;-61
2021/04/16 02:32:44;;;;;;;9.40;8.40;;;;;;;9.29;91.87;99167.36;1738424;82;21002;-59
2021/04/16 02:35:13;;;;;;;9.70;8.10;;;;;;;9.27;92.07;99169.48;1753706;81;21054;-59
2021/04/16 02:37:40;;;;;;;9.80;8.48;;;;;;;9.24;92.20;99168.66;1761544;81;21787;-58
2021/04/16 02:40:12;;;;;;;8.05;7.25;;;;;;;9.24;92.22;99174.02;1751413;81;21221;-58
2021/04/16 02:42:39;;;;;;;10.78;8.55;;;;;;;9.26;92.31;99172.41;1767067;81;21433;-58
2021/04/16 02:45:09;;;;;;;9.83;8.93;;;;;;;9.24;92.28;99170.00;1768866;81;21157;-61
2021/04/16 02:47:37;;;;;;;10.30;7.78;;;;;;;9.28;92.39;99172.97;1769021;80;21125;-59
2021/04/16 02:50:07;;;;;;;9.88;7.55;;;;;;;9.30;92.34;99175.70;1749254;81;21161;-58
2021/04/16 02:52:34;;;;;;;9.55;8.60;;;;;;;9.34;92.33;99174.66;1768960;80;21149;-60
2021/04/16 02:55:03;;;;;;;11.22;8.63;;;;;;;9.33;92.20;99171.16;1768900;81;21615;-61
2021/04/16 02:57:33;;;;;;;9.50;8.55;;;;;;;9.33;92.18;99174.36;1768148;81;21610;-59
2021/04/16 03:00:01;;;;;;;9.90;8.93;;;;;;;9.30;92.21;99180.25;1755131;80;21126;-60
2021/04/16 03:02:29;;;;;;;8.53;7.72;;;;;;;9.30;92.27;99168.17;1766630;81;21569;-61
2021/04/16 03:04:56;;;;;;;10.28;9.28;;;;;;;9.26;92.13;99165.70;1767393;81;21137;-59
2021/04/16 03:07:25;;;;;;;8.88;8.00;;;;;;;9.21;92.22;99175.84;1767275;81;21397;-60
2021/04/16 03:09:52;;;;;;;10.30;9.18;;;;;;;9.18;92.39;99171.00;1753080;81;21141;-59
2021/04/16 03:12:20;;;;;;;9.35;8.45;;;;;;;9.18;92.67;99166.98;1763985;81;20996;-60
2021/04/16 03:14:48;;;;;;;9.98;9.08;;;;;;;9.21;92.85;99165.67;1758689;81;21176;-60
2021/04/16 03:17:15;;;;;;;8.63;7.42;;;;;;;9.23;92.77;99167.55;1717599;82;21204;-59
2021/04/16 03:19:44;;;;;;;15.08;9.15;;;;;;;9.21;92.71;99169.70;1779530;80;21203;-60
2021/04/16 03:22:11;;;;;;;10.10;8.98;;;;;;;9.17;92.63;99166.69;1731796;81;21172;-58
2021/04/16 03:24:39;;;;;;;8.58;7.72;;;;;;;9.17;92.73;99168.84;1713417;83;21117;-58
2021/04/16 03:27:07;;;;;;;11.95;7.83;;;;;;;9.20;92.91;99168.89;1742891;82;21643;-59
2021/04/16 03:29:35;;;;;;;7.20;6.60;;;;;;;9.22;92.85;99175.32;1786258;80;21105;-60
2021/04/16 03:32:03;;;;;;;9.65;6.35;;;;;;;9.18;92.75;99171.81;1758525;81;21157;-61
2021/04/16 03:34:31;;;;;;;8.33;7.55;;;;;;;9.18;92.74;99171.00;1761219;80;21686;-64
2021/04/16 03:36:59;;;;;;;8.55;6.70;;;;;;;9.14;92.60;99167.21;1749256;81;21153;-60
2021/04/16 03:39:27;;;;;;;7.53;6.92;;;;;;;9.13;92.61;99170.95;1751233;81;21646;-59
2021/04/16 03:41:56;;;;;;;8.00;7.20;;;;;;;9.09;92.47;99174.67;1731623;82;21189;-60
2021/04/16 03:44:23;;;;;;;6.90;6.17;;;;;;;9.07;92.58;99178.66;1741045;82;23534;-58
2021/04/16 03:46:51;;;;;;;10.08;7.47;;;;;;;9.05;92.62;99180.80;1740950;82;21622;-59
2021/04/16 03:49:19;;;;;;;6.97;6.20;;;;;;;9.02;92.81;99178.08;1737550;82;21079;-61
2021/04/16 03:51:54;;;;;;;8.38;6.83;;;;;;;9.03;92.92;99178.89;1763533;80;21574;-60
2021/04/16 03:54:22;;;;;;;9.73;8.50;;;;;;;9.02;92.83;99174.05;1759636;80;21218;-60
2021/04/16 03:56:50;;;;;;;9.70;7.87;;;;;;;9.02;92.84;99173.23;1754987;81;21204;-61
2021/04/16 03:59:19;;;;;;;11.75;8.08;;;;;;;8.97;92.75;99172.66;1764068;80;21149;-59
2021/04/16 04:01:47;;;;;;;6.62;5.90;;;;;;;8.93;92.81;99173.41;1755545;81;21129;-60
2021/04/16 04:04:16;;;;;;;9.90;6.90;;;;;;;8.91;93.05;99178.23;1733011;82;21215;-61
2021/04/16 04:06:47;;;;;;;9.68;6.87;;;;;;;8.90;93.28;99181.97;1737929;82;21141;-60
2021/04/16 04:09:15;;;;;;;13.45;7.85;;;;;;;8.93;93.46;99184.14;1746221;81;22106;-58
2021/04/16 04:11:43;;;;;;;12.03;8.55;;;;;;;8.94;93.44;99180.40;1751583;81;21269;-58
2021/04/16 04:14:11;;;;;;;8.48;6.35;;;;;;;8.94;93.45;99183.89;1737989;81;21129;-60
2021/04/16 04:16:56;;;;;;;10.05;7.92;;;;;;;8.92;93.45;99181.98;1754384;81;20987;-59
2021/04/16 04:19:26;;;;;;;8.50;7.60;;;;;;;8.91;93.48;99177.70;1758316;80;21054;-60
2021/04/16 04:21:57;;;;;;;10.25;7.75;;;;;;;8.92;93.57;99189.25;1756833;81;21586;-59
2021/04/16 04:24:26;;;;;;;9.13;7.47;;;;;;;8.96;93.81;99182.31;1768337;80;21175;-61
2021/04/16 04:26:54;;;;;;;7.90;6.00;;;;;;;8.98;93.73;99187.69;1739390;82;21010;-59
2021/04/16 04:29:24;;;;;;;13.72;10.13;;;;;;;8.98;93.66;99189.03;1750611;81;21082;-59
2021/04/16 04:31:52;;;;;;;7.85;6.10;;;;;;;8.97;93.58;99186.63;1737826;82;21149;-61
2021/04/16 04:34:24;;;;;;;7.33;6.60;;;;;;;8.95;93.57;99188.20;1737791;82;22305;-60
2021/04/16 04:36:55;;;;;;;7.42;6.72;;;;;;;8.95;93.58;99184.71;1737884;82;21149;-58
2021/04/16 04:39:26;;;;;;;7.80;7.10;;;;;;;8.96;93.75;99188.49;1755643;81;21168;-61
2021/04/16 04:41:53;;;;;;;7.45;5.58;;;;;;;9.00;93.89;99191.47;1768082;81;21038;-58
2021/04/16 04:44:21;;;;;;;8.00;7.17;;;;;;;9.03;93.78;99189.09;1768170;81;21212;-61
2021/04/16 04:46:49;;;;;;;6.22;5.62;;;;;;;9.04;93.67;99192.58;1762697;81;21344;-59
2021/04/16 04:49:19;;;;;;;7.50;6.78;;;;;;;9.04;93.68;99193.40;1757455;81;21177;-59
2021/04/16 04:51:47;;;;;;;7.50;6.78;;;;;;;9.01;93.50;99189.89;1768301;81;21627;-61
2021/04/16 04:54:16;;;;;;;7.28;6.55;;;;;;;8.98;93.54;99194.92;1768307;80;21799;-59
2021/04/16 04:56:43;;;;;;;9.08;7.12;;;;;;;8.98;93.66;99194.92;1768422;81;21611;-59
2021/04/16 04:59:11;;;;;;;6.90;6.28;;;;;;;9.00;93.84;99192.28;1750021;81;22272;-60
2021/04/16 05:01:38;;;;;;;7.58;5.55;;;;;;;9.03;93.68;99193.11;1762551;81;21121;-60
2021/04/16 05:04:06;;;;;;;9.30;6.80;;;;;;;9.05;93.67;99194.21;1768307;80;21216;-59
2021/04/16 05:06:34;;;;;;;11.45;8.68;;;;;;;9.01;93.44;99190.42;1768247;80;21149;-60
2021/04/16 05:09:02;;;;;;;8.93;6.67;;;;;;;9.00;93.56;99190.13;1752181;81;21177;-59
2021/04/16 05:11:30;;;;;;;8.58;7.75;;;;;;;9.02;93.69;99192.02;1737757;82;21212;-61
2021/04/16 05:13:57;;;;;;;8.10;7.28;;;;;;;9.06;93.80;99189.95;1737772;82;22035;-60
2021/04/16 05:16:26;;;;;;;8.20;7.40;;;;;;;9.10;93.67;99188.91;1737769;82;20972;-62
2021/04/16 05:18:54;;;;;;;7.22;6.53;;;;;;;9.10;93.49;99190.25;1751653;81;21177;-60
2021/04/16 05:21:25;;;;;;;10.20;6.90;;;;;;;9.09;93.52;99189.43;1768256;80;21133;-63
2021/04/16 05:23:53;;;;;;;8.00;7.22;;;;;;;9.10;93.41;99187.56;1744387;81;22896;-59
2021/04/16 05:26:21;;;;;;;9.08;7.55;;;;;;;9.09;93.38;99187.28;1737692;82;21142;-60
2021/04/16 05:28:48;;;;;;;8.98;7.85;;;;;;;9.08;93.42;99185.13;1751214;81;21633;-59
2021/04/16 05:31:16;;;;;;;10.58;8.43;;;;;;;9.11;93.48;99187.29;1742886;81;21102;-60
2021/04/16 05:33:43;;;;;;;8.50;7.78;;;;;;;9.13;93.39;99187.86;1737773;82;21158;-60
2021/04/16 05:36:11;;;;;;;12.80;9.95;;;;;;;9.13;93.31;99182.49;1749109;81;21465;-66
2021/04/16 05:38:39;;;;;;;7.92;7.12;;;;;;;9.15;93.28;99185.75;1747761;81;21238;-60
2021/04/16 05:41:06;;;;;;;12.93;9.78;;;;;;;9.15;93.16;99188.43;1768329;81;21189;-60
2021/04/16 05:43:37;;;;;;;9.85;8.20;;;;;;;9.14;93.18;99192.17;1768298;81;21021;-60
2021/04/16 05:46:05;;;;;;;10.03;9.00;;;;;;;9.15;93.21;99189.77;1768304;81;21121;-59
2021/04/16 05:48:33;;;;;;;10.38;9.10;;;;;;;9.15;93.24;99187.09;1759778;81;21238;-60
2021/04/16 05:51:01;;;;;;;10.05;8.60;;;;;;;9.25;93.52;99194.95;1737718;82;21209;-60
2021/04/16 05:53:28;;;;;;;10.68;9.00;;;;;;;9.31;93.30;99193.39;1737752;82;21189;-63
2021/04/16 05:55:57;;;;;;;12.55;8.38;;;;;;;9.35;92.97;99196.41;1752707;81;21090;-60
2021/04/16 05:58:25;;;;;;;11.30;8.63;;;;;;;9.34;92.78;99199.62;1757080;81;21054;-60
2021/04/16 06:00:52;;;;;;;10.40;8.25;;;;;;;9.31;92.51;99193.92;1766902;80;21268;-61
2021/04/16 06:03:20;;;;;;;10.93;8.05;;;;;;;9.31;92.56;99193.39;1766550;81;21626;-59
2021/04/16 06:05:47;;;;;;;11.22;8.33;;;;;;;9.37;92.62;99193.73;1764383;80;21110;-61
2021/04/16 06:08:18;;;;;;;8.85;7.65;;;;;;;9.39;92.47;99193.48;1755221;80;21670;-61
2021/04/16 06:10:45;;;;;;;12.43;9.50;;;;;;;9.40;92.11;99195.89;1736144;82;21201;-61
2021/04/16 06:13:13;;;;;;;11.25;10.05;;;;;;;9.39;91.93;99196.17;1736165;82;21948;-60
2021/04/16 06:15:42;;;;;;;9.73;8.73;;;;;;;9.40;91.95;99197.80;1736013;82;21671;-60
2021/04/16 06:18:10;;;;;;;12.35;9.93;;;;;;;9.38;91.79;99199.38;1743814;81;21572;-61
2021/04/16 06:20:38;;;;;;;8.33;7.42;;;;;;;9.37;91.87;99198.28;1766645;80;21162;-62
2021/04/16 06:23:06;;;;;;;10.05;9.03;;;;;;;9.37;91.90;99198.28;1766664;81;21189;-60
2021/04/16 06:25:34;;;;;;;10.38;9.30;;;;;;;9.37;91.92;99200.44;1766598;81;21603;-59
2021/04/16 06:28:04;;;;;;;11.03;9.93;;;;;;;9.38;91.85;99202.06;1763900;80;21050;-62
2021/04/16 06:30:32;;;;;;;14.33;9.95;;;;;;;9.39;91.92;99205.03;1766663;80;21576;-61
2021/04/16 06:33:05;;;;;;;10.00;8.85;;;;;;;9.41;92.16;99202.89;1766589;81;21145;-61
2021/04/16 06:35:34;;;;;;;11.40;10.23;;;;;;;9.46;92.24;99210.99;1766688;80;21138;-59
2021/04/16 06:38:02;;;;;;;13.45;9.85;;;;;;;9.51;92.16;99213.72;1759804;81;22286;-58
2021/04/16 06:40:30;;;;;;;11.93;10.72;;;;;;;9.51;91.67;99211.04;1736042;82;21209;-61
2021/04/16 06:42:58;;;;;;;14.95;11.40;;;;;;;9.49;91.50;99213.19;1736249;82;21202;-59
2021/04/16 06:45:30;;;;;;;13.90;10.25;;;;;;;9.53;91.54;99216.98;1736207;82;21622;-61
2021/04/16 06:48:04;;;;;;;13.05;11.15;;;;;;;9.55;91.29;99211.33;1741573;81;21181;-61
2021/04/16 06:50:41;;;;;;;11.08;8.95;;;;;;;9.53;91.17;99221.00;1762146;81;21393;-61
2021/04/16 06:53:41;;;;;;;13.10;9.65;;;;;;;9.50;90.99;99217.99;1758832;81;21209;-61
2021/04/16 06:56:15;;;;;;;11.80;8.25;;;;;;;9.50;91.03;99219.34;1746398;81;21558;-61
2021/04/16 06:59:16;;;;;;;13.15;9.70;;;;;;;9.51;90.95;99229.02;1728449;82;21081;-60
2021/04/16 07:02:02;;;;;;;13.03;9.55;;;;;;;9.52;91.21;99223.41;1728028;82;21630;-61
2021/04/16 07:04:54;;;;;;;9.90;8.80;;;;;;;9.61;91.05;99225.91;1742957;82;22125;-60
2021/04/16 07:07:41;;;;;;;12.93;10.53;;;;;;;9.62;90.86;99229.40;1742701;82;21196;-61
2021/04/16 07:10:18;;;;;;;12.05;9.63;;;;;;;9.60;90.67;99228.83;1713273;83;21077;-61
2021/04/16 07:12:46;;;;;;;9.65;8.75;;;;;;;9.61;90.76;99227.25;1715252;82;21195;-62
2021/04/16 07:15:24;;;;;;;12.15;10.05;;;;;;;9.64;90.72;99231.28;1688903;83;21223;-62
2021/04/16 07:17:53;;;;;;;14.10;9.98;;;;;;;9.65;90.87;99231.56;1716154;82;21080;-62
2021/04/16 07:20:23;;;;;;;13.43;11.08;;;;;;;9.71;90.96;99231.08;1742814;82;21153;-61
2021/04/16 07:22:55;;;;;;;12.33;11.05;;;;;;;9.77;91.11;99230.06;1742936;82;22166;-61
2021/04/16 07:25:33;;;;;;;12.25;10.93;;;;;;;9.81;90.77;99234.67;1742955;82;21145;-62
2021/04/16 07:28:13;;;;;;;10.15;9.03;;;;;;;9.80;90.55;99237.60;1738777;82;21208;-61
2021/04/16 07:30:49;;;;;;;10.58;9.48;;;;;;;9.76;90.42;99236.50;1713232;83;21257;-62
2021/04/16 07:33:41;;;;;;;11.93;8.90;;;;;;;9.70;90.35;99238.85;1717001;82;21101;-65
2021/04/16 07:36:36;;;;;;;10.23;8.85;;;;;;;9.67;90.46;99241.53;1713273;83;21204;-61
2021/04/16 07:39:22;;;;;;;11.08;7.58;;;;;;;9.72;90.67;99248.81;1713198;83;21050;-62
2021/04/16 07:41:59;;;;;;;9.50;8.10;;;;;;;9.76;90.62;99240.00;1714925;82;21132;-62
2021/04/16 07:47:16;;;;;;;10.10;9.08;;;;;;;9.92;90.28;99235.57;1889085;76;28123;-62
2021/04/16 07:49:55;;;;;;;11.57;8.50;;;;;;;9.86;89.93;99241.96;1860160;77;21034;-62
2021/04/16 07:52:35;;;;;;;7.47;6.78;;;;;;;9.81;90.03;99245.41;1856166;77;21039;-60
2021/04/16 07:55:20;;;;;;;6.33;5.53;;;;;;;9.83;90.02;99247.30;1806381;79;21638;-64
2021/04/16 07:57:58;;;;;;;9.05;8.03;;;;;;;9.77;89.70;99254.23;1797610;79;21689;-62
2021/04/16 08:00:44;;;;;;;8.73;7.75;;;;;;;9.72;90.03;99247.48;1789934;80;21020;-64
2021/04/16 08:03:24;;;;;;;7.28;6.58;;;;;;;9.76;90.38;99252.61;1805318;78;21041;-63
2021/04/16 08:05:54;;;;;;;8.33;7.37;;;;;;;9.80;90.47;99249.16;1783841;80;21143;-61
2021/04/16 08:08:29;;;;;;;7.80;6.75;;;;;;;9.85;90.58;99248.39;1787279;80;21675;-61
2021/04/16 08:11:12;;;;;;;7.90;6.40;;;;;;;9.91;90.65;99251.41;1783611;80;20991;-64
2021/04/16 08:13:50;;;;;;;7.40;6.47;;;;;;;9.97;90.51;99255.77;1779961;80;21133;-64
2021/04/16 08:16:26;;;;;;;9.35;8.18;;;;;;;10.02;90.34;99257.15;1810442;78;21178;-62
2021/04/16 08:19:21;;;;;;;10.20;6.22;;;;;;;10.08;90.28;99255.56;1822263;78;22140;-63
2021/04/16 08:21:58;;;;;;;7.03;6.33;;;;;;;10.12;89.96;99253.17;1821630;78;21274;-62
2021/04/16 08:24:39;;;;;;;11.48;7.58;;;;;;;10.13;89.81;99258.02;1811627;79;21049;-63
2021/04/16 08:27:12;;;;;;;7.12;6.10;;;;;;;10.02;89.42;99253.90;1811615;79;21185;-62
2021/04/16 08:29:44;;;;;;;6.50;5.90;;;;;;;9.94;89.63;99249.01;1790220;80;21138;-65
2021/04/16 08:32:43;;;;;;;5.70;5.08;;;;;;;9.92;89.86;99249.00;1790671;80;21201;-62
2021/04/16 08:35:17;;;;;;;7.03;4.30;;;;;;;9.95;90.14;99257.88;1780008;80;21240;-63
2021/04/16 08:37:49;;;;;;;5.42;4.97;;;;;;;9.99;90.09;99249.58;1787023;80;21757;-61
2021/04/16 08:40:26;;;;;;;3.98;3.67;;;;;;;10.00;89.62;99255.23;1783613;80;21587;-65
2021/04/16 08:42:57;;;;;;;4.85;4.45;;;;;;;9.98;89.44;99258.70;1788460;80;21172;-62
2021/04/16 08:45:29;;;;;;;5.47;4.97;;;;;;;9.92;89.37;99254.37;1769175;80;21639;-63
2021/04/16 08:48:06;;;;;;;5.20;4.70;;;;;;;9.85;89.53;99253.77;1761392;81;21203;-63
2021/04/16 08:50:36;;;;;;;4.53;4.22;;;;;;;9.82;89.79;99261.00;1748698;81;21489;-63
2021/04/16 08:53:04;;;;;;;4.22;3.80;;;;;;;9.79;89.88;99256.13;1766583;81;21200;-62
2021/04/16 08:55:39;;;;;;;4.53;3.67;;;;;;;9.79;90.19;99261.48;1751377;82;21121;-62
2021/04/16 08:58:32;;;;;;;5.17;4.50;;;;;;;9.79;90.28;99260.15;1751046;82;21354;-60
2021/04/16 09:01:13;;;;;;;7.87;7.08;;;;;;;9.80;90.48;99263.12;1768273;80;21204;-66
2021/04/16 09:03:49;;;;;;;13.08;10.30;;;;;;;9.81;90.53;99259.38;1783760;80;21591;-71
2021/04/16 09:06:32;;;;;;;44.25;36.00;;;;;;;9.73;90.52;99263.34;1766095;80;21183;-61
2021/04/16 09:09:05;;;;;;;9.65;8.65;;;;;;;9.64;91.22;99264.31;1749447;80;21021;-65
2021/04/16 09:11:47;;;;;;;8.20;7.40;;;;;;;9.62;91.83;99264.30;1790574;79;21334;-64
2021/04/16 09:14:27;;;;;;;8.57;6.87;;;;;;;9.65;92.32;99266.47;1782922;80;21070;-60
2021/04/16 09:17:02;;;;;;;9.75;5.58;;;;;;;9.66;92.73;99267.28;1782668;80;21163;-64
2021/04/16 09:19:42;;;;;;;6.45;5.95;;;;;;;9.67;92.74;99267.57;1783575;79;21539;-63
2021/04/16 09:22:18;;;;;;;7.80;7.10;;;;;;;9.69;92.57;99261.42;1793673;79;21642;-64
2021/04/16 09:24:59;;;;;;;8.00;7.25;;;;;;;9.73;92.71;99270.05;1795369;79;22465;-63
2021/04/16 09:27:38;;;;;;;6.90;6.22;;;;;;;9.82;92.65;99265.03;1773234;79;21225;-64
2021/04/16 09:30:14;;;;;;;5.67;5.17;;;;;;;9.89;92.50;99273.67;1772163;81;21087;-63
2021/04/16 09:32:50;;;;;;;;;;;;;;;9.86;92.01;99267.48;1763208;80;21102;-62
2021/04/16 09:35:23;;;;;;;5.17;4.65;;;;;;;9.92;92.09;99274.52;1786186;80;20238;-62
2021/04/16 09:38:10;;;;;;;;;;;;;;;10.00;92.12;99270.02;1783120;80;21242;-64
2021/04/16 09:40:38;;;;;;;4.42;4.03;;;;;;;10.07;91.84;99276.00;1756705;81;21921;-64
2021/04/16 09:43:22;;;;;;;5.42;4.70;;;;;;;10.16;91.80;99273.67;1756732;80;21594;-63
2021/04/16 09:45:54;;;;;;;4.97;4.42;;;;;;;10.15;91.40;99272.83;1735853;81;21393;-62
2021/04/16 09:48:28;;;;;;;4.03;3.37;;;;;;;10.09;91.16;99273.84;1774854;80;20987;-60
2021/04/16 09:51:04;;;;;;;5.93;4.30;;;;;;;10.12;91.49;99276.01;1777866;80;21184;-61
2021/04/16 09:53:37;;;;;;;4.83;4.42;;;;;;;10.13;91.37;99274.95;1781948;80;21269;-62
2021/04/16 09:56:16;;;;;;;3.52;3.20;;;;;;;10.15;91.41;99275.52;1782183;80;21090;-63
2021/04/16 09:58:56;;;;;;;5.12;4.62;;;;;;;10.18;91.60;99275.02;1784374;80;21607;-63
2021/04/16 10:01:27;;;;;;;4.45;4.05;;;;;;;10.15;91.33;99271.48;1784437;80;21613;-59
2021/04/16 10:04:02;;;;;;;;;;;;;;;10.17;91.69;99272.61;1778862;80;21339;-62
2021/04/16 10:06:39;;;;;;;5.10;4.62;;;;;;;10.17;91.46;99276.08;1772488;80;20131;-60
2021/04/16 10:09:24;;;;;;;6.72;4.60;;;;;;;10.15;91.42;99275.52;1782461;80;21145;-61
2021/04/16 10:12:03;;;;;;;5.47;4.97;;;;;;;10.21;91.98;99270.50;1770095;80;21173;-62
2021/04/16 10:14:37;;;;;;;5.25;4.78;;;;;;;10.30;92.03;99274.84;1771551;80;21129;-61
2021/04/16 10:17:21;;;;;;;6.87;5.83;;;;;;;10.37;91.89;99277.58;1753110;81;21206;-63
2021/04/16 10:20:13;;;;;;;6.90;6.20;;;;;;;10.47;91.78;99276.30;1753318;80;21594;-63
2021/04/16 10:22:40;;;;;;;9.43;6.60;;;;;;;10.49;91.25;99282.78;1753187;81;21587;-64
2021/04/16 10:26:31;;;;;;;7.25;6.22;;;;;;;10.57;91.36;99274.75;1766290;80;21042;-60
2021/04/16 12:39:09;;;;;;;11.30;8.53;;;;;;;11.22;86.77;99293.12;1762219;80;21191;-66
2021/04/16 12:41:42;;;;;;;10.45;9.45;;;;;;;11.25;85.63;99294.73;1779131;80;21598;-66
2021/04/16 12:44:37;;;;;;;8.80;7.90;;;;;;;11.16;85.68;99290.13;1788610;80;21182;-68
2021/04/16 12:47:09;;;;;;;8.85;7.95;;;;;;;11.14;86.20;99288.22;1746237;81;21191;-64
2021/04/16 12:49:37;;;;;;;9.68;8.70;;;;;;;11.04;85.56;99284.95;1713954;82;21199;-63
2021/04/16 12:52:06;;;;;;;10.82;9.28;;;;;;;11.02;85.74;99287.64;1714543;82;23507;-65
2021/04/16 12:54:38;;;;;;;9.28;8.03;;;;;;;10.94;85.01;99284.89;1770618;80;21200;-63
2021/04/16 12:57:08;;;;;;;8.30;7.15;;;;;;;10.89;85.54;99287.56;1740687;80;21148;-65
2021/04/16 12:59:36;;;;;;;9.38;8.48;;;;;;;10.83;85.41;99285.41;1782457;80;21134;-66
2021/04/16 13:02:06;;;;;;;7.12;6.42;;;;;;;10.78;86.06;99287.25;1783057;80;21532;-65
2021/04/16 13:04:40;;;;;;;9.68;8.08;;;;;;;10.82;86.22;99291.85;1783596;80;21193;-64
2021/04/16 13:07:07;;;;;;;;;;;;;;;10.83;86.21;99285.94;1746868;80;21188;-65
2021/04/16 13:09:36;;;;;;;10.25;9.20;;;;;;;10.85;86.80;99290.50;1735210;81;20262;-64
2021/04/16 13:12:06;;;;;;;9.85;8.85;;;;;;;10.86;87.09;99281.37;1752631;81;21171;-66
2021/04/16 13:14:34;;;;;;;10.98;9.88;;;;;;;10.84;87.02;99288.34;1721819;82;21090;-63
2021/04/16 13:17:04;;;;;;;11.00;9.88;;;;;;;10.79;87.77;99291.01;1757041;80;21199;-66
2021/04/16 13:19:35;;;;;;;10.85;9.85;;;;;;;10.78;88.21;99286.72;1775113;80;21125;-64
2021/04/16 13:22:11;;;;;;;12.78;11.48;;;;;;;10.89;88.42;99292.94;1780102;80;21125;-65
2021/04/16 13:24:40;;;;;;;10.05;9.13;;;;;;;10.94;87.96;99284.89;1753781;81;21567;-63
2021/04/16 13:27:10;;;;;;;12.37;11.28;;;;;;;11.00;87.34;99292.47;1754693;80;21089;-65
2021/04/16 13:29:37;;;;;;;14.73;13.35;;;;;;;11.01;86.69;99291.40;1753751;81;21398;-66
2021/04/16 13:32:18;;;;;;;13.38;12.15;;;;;;;10.90;85.83;99288.66;1762764;80;21137;-64
2021/04/16 13:34:46;;;;;;;10.93;9.93;;;;;;;10.77;86.20;99291.01;1774686;80;21166;-63
2021/04/16 13:37:18;;;;;;;11.43;10.32;;;;;;;10.75;86.53;99289.91;1761114;81;21183;-66
2021/04/16 13:39:48;;;;;;;12.73;11.43;;;;;;;10.74;86.76;99294.23;1765379;80;21165;-62
2021/04/16 13:42:16;;;;;;;13.40;10.32;;;;;;;10.75;86.98;99288.57;1783194;80;21367;-62
2021/04/16 13:44:44;;;;;;;14.68;13.25;;;;;;;10.67;87.24;99285.57;1753462;80;21173;-63
2021/04/16 13:47:16;;;;;;;13.78;12.37;;;;;;;10.68;87.66;99288.54;1752859;80;21196;-65
2021/04/16 13:49:45;;;;;;;21.57;17.90;;;;;;;10.75;88.05;99291.79;1766871;80;21650;-68
2021/04/16 13:52:15;;;;;;;22.90;20.05;;;;;;;10.82;88.02;99289.16;1759030;80;21166;-65
2021/04/16 13:54:48;;;;;;;22.85;20.40;;;;;;;10.85;88.16;99283.78;1782307;80;21220;-67
2021/04/16 13:57:18;;;;;;;21.52;18.92;;;;;;;10.91;88.26;99292.97;1753208;80;21205;-66
2021/04/16 13:59:46;;;;;;;14.20;12.90;;;;;;;10.89;88.22;99288.91;1777777;80;21193;-67
2021/04/16 14:02:27;;;;;;;13.20;11.83;;;;;;;10.84;88.11;99299.11;1739319;82;21172;-67
2021/04/16 14:04:55;;;;;;;15.58;13.93;;;;;;;10.78;88.16;99290.76;1739507;82;21607;-65
2021/04/16 14:07:23;;;;;;;12.43;11.10;;;;;;;10.84;88.31;99291.56;1710644;82;21465;-66
2021/04/16 14:09:51;;;;;;;17.92;13.53;;;;;;;10.91;88.18;99288.12;1766708;81;21185;-61
2021/04/16 14:12:19;;;;;;;14.90;11.55;;;;;;;10.91;88.08;99291.63;1748965;81;21666;-63
2021/04/16 14:14:47;;;;;;;13.35;10.20;;;;;;;10.94;87.89;99290.28;1752188;81;21969;-64
2021/04/16 14:17:25;;;;;;;13.70;10.23;;;;;;;10.90;87.71;99287.84;1730537;81;21176;-65